sensor_id;sensor_type;location;lat;lon;timestamp;temperature;humidity
79140;HTU21D;68546;59.142;37.948;2023-10-19T00:01:14;3.26;69.76
79140;HTU21D;68546;59.142;37.948;2023-10-19T00:03:44;3.26;69.78
79140;HTU21D;68546;59.142;37.948;2023-10-19T00:06:11;3.23;69.75
79140;HTU21D;68546;59.142;37.948;2023-10-19T00:08:37;3.21;69.78
79140;HTU21D;68546;59.142;37.948;2023-10-19T00:11:07;3.19;69.82
79140;HTU21D;68546;59.142;37.948;2023-10-19T00:13:35;3.19;69.87
79140;HTU21D;68546;59.142;37.948;2023-10-19T00:16:01;3.19;69.85
79140;HTU21D;68546;59.142;37.948;2023-10-19T00:18:45;3.18;69.90
79140;HTU21D;68546;59.142;37.948;2023-10-19T00:21:15;3.18;69.93
79140;HTU21D;68546;59.142;37.948;2023-10-19T00:23:56;3.16;70.00
79140;HTU21D;68546;59.142;37.948;2023-10-19T00:26:24;3.16;70.05
79140;HTU21D;68546;59.142;37.948;2023-10-19T00:28:58;3.15;70.00
79140;HTU21D;68546;59.142;37.948;2023-10-19T00:31:27;3.16;70.07
79140;HTU21D;68546;59.142;37.948;2023-10-19T00:33:55;3.17;70.18
79140;HTU21D;68546;59.142;37.948;2023-10-19T00:36:22;3.18;70.21
79140;HTU21D;68546;59.142;37.948;2023-10-19T00:38:49;3.17;70.24
79140;HTU21D;68546;59.142;37.948;2023-10-19T00:41:19;3.18;70.27
79140;HTU21D;68546;59.142;37.948;2023-10-19T00:43:48;3.18;70.26
79140;HTU21D;68546;59.142;37.948;2023-10-19T00:46:16;3.19;70.19
79140;HTU21D;68546;59.142;37.948;2023-10-19T00:48:55;3.18;70.21
79140;HTU21D;68546;59.142;37.948;2023-10-19T00:51:31;3.19;70.16
79140;HTU21D;68546;59.142;37.948;2023-10-19T00:54:10;3.18;70.13
79140;HTU21D;68546;59.142;37.948;2023-10-19T00:56:46;3.17;70.16
79140;HTU21D;68546;59.142;37.948;2023-10-19T00:59:19;3.17;70.19
79140;HTU21D;68546;59.142;37.948;2023-10-19T01:01:52;3.17;70.13
79140;HTU21D;68546;59.142;37.948;2023-10-19T01:04:29;3.15;70.11
79140;HTU21D;68546;59.142;37.948;2023-10-19T01:07:00;3.16;70.16
79140;HTU21D;68546;59.142;37.948;2023-10-19T01:09:43;3.15;70.24
79140;HTU21D;68546;59.142;37.948;2023-10-19T01:12:12;3.15;70.29
79140;HTU21D;68546;59.142;37.948;2023-10-19T01:15:08;3.16;70.29
79140;HTU21D;68546;59.142;37.948;2023-10-19T01:17:42;3.16;70.28
79140;HTU21D;68546;59.142;37.948;2023-10-19T01:20:13;3.15;70.32
79140;HTU21D;68546;59.142;37.948;2023-10-19T01:22:57;3.16;70.33
79140;HTU21D;68546;59.142;37.948;2023-10-19T01:28:26;3.15;70.25
79140;HTU21D;68546;59.142;37.948;2023-10-19T01:31:15;3.15;70.29
79140;HTU21D;68546;59.142;37.948;2023-10-19T01:33:55;3.15;70.24
79140;HTU21D;68546;59.142;37.948;2023-10-19T01:36:24;3.15;70.29
79140;HTU21D;68546;59.142;37.948;2023-10-19T01:38:52;3.15;70.38
79140;HTU21D;68546;59.142;37.948;2023-10-19T01:41:22;3.15;70.47
79140;HTU21D;68546;59.142;37.948;2023-10-19T01:43:51;3.16;70.57
79140;HTU21D;68546;59.142;37.948;2023-10-19T01:46:23;3.16;70.58
79140;HTU21D;68546;59.142;37.948;2023-10-19T01:48:51;3.19;70.58
79140;HTU21D;68546;59.142;37.948;2023-10-19T01:51:26;3.19;70.64
79140;HTU21D;68546;59.142;37.948;2023-10-19T01:53:53;3.19;70.78
79140;HTU21D;68546;59.142;37.948;2023-10-19T01:56:21;3.23;70.87
79140;HTU21D;68546;59.142;37.948;2023-10-19T01:58:49;3.24;70.89
79140;HTU21D;68546;59.142;37.948;2023-10-19T02:01:18;3.28;70.93
79140;HTU21D;68546;59.142;37.948;2023-10-19T02:03:48;3.29;70.87
79140;HTU21D;68546;59.142;37.948;2023-10-19T02:06:21;3.28;70.74
79140;HTU21D;68546;59.142;37.948;2023-10-19T02:08:55;3.29;70.76
79140;HTU21D;68546;59.142;37.948;2023-10-19T02:11:27;3.28;70.74
79140;HTU21D;68546;59.142;37.948;2023-10-19T02:13:56;3.30;70.78
79140;HTU21D;68546;59.142;37.948;2023-10-19T02:16:26;3.30;71.02
79140;HTU21D;68546;59.142;37.948;2023-10-19T02:18:55;3.32;71.19
79140;HTU21D;68546;59.142;37.948;2023-10-19T02:21:22;3.35;71.37
79140;HTU21D;68546;59.142;37.948;2023-10-19T02:23:49;3.39;71.48
79140;HTU21D;68546;59.142;37.948;2023-10-19T02:26:21;3.44;71.67
79140;HTU21D;68546;59.142;37.948;2023-10-19T02:28:52;3.48;71.72
79140;HTU21D;68546;59.142;37.948;2023-10-19T02:31:20;3.55;71.84
79140;HTU21D;68546;59.142;37.948;2023-10-19T02:33:50;3.59;71.90
79140;HTU21D;68546;59.142;37.948;2023-10-19T02:36:30;3.64;71.96
79140;HTU21D;68546;59.142;37.948;2023-10-19T02:39:00;3.70;71.77
79140;HTU21D;68546;59.142;37.948;2023-10-19T02:41:27;3.73;71.58
79140;HTU21D;68546;59.142;37.948;2023-10-19T02:43:54;3.76;71.47
79140;HTU21D;68546;59.142;37.948;2023-10-19T02:46:28;3.78;71.33
79140;HTU21D;68546;59.142;37.948;2023-10-19T02:48:55;3.79;71.19
79140;HTU21D;68546;59.142;37.948;2023-10-19T02:51:21;3.80;70.92
79140;HTU21D;68546;59.142;37.948;2023-10-19T02:53:47;3.80;70.83
79140;HTU21D;68546;59.142;37.948;2023-10-19T02:56:15;3.79;70.91
79140;HTU21D;68546;59.142;37.948;2023-10-19T02:58:46;3.79;71.03
79140;HTU21D;68546;59.142;37.948;2023-10-19T03:01:19;3.83;71.21
79140;HTU21D;68546;59.142;37.948;2023-10-19T03:03:51;3.84;71.26
79140;HTU21D;68546;59.142;37.948;2023-10-19T03:06:23;3.88;71.33
79140;HTU21D;68546;59.142;37.948;2023-10-19T03:08:50;3.89;71.41
79140;HTU21D;68546;59.142;37.948;2023-10-19T03:11:27;3.95;71.49
79140;HTU21D;68546;59.142;37.948;2023-10-19T03:13:54;3.99;71.61
79140;HTU21D;68546;59.142;37.948;2023-10-19T03:16:21;4.03;71.55
79140;HTU21D;68546;59.142;37.948;2023-10-19T03:18:53;4.06;71.38
79140;HTU21D;68546;59.142;37.948;2023-10-19T03:21:21;4.08;71.34
79140;HTU21D;68546;59.142;37.948;2023-10-19T03:23:54;4.10;71.33
79140;HTU21D;68546;59.142;37.948;2023-10-19T03:26:22;4.15;71.41
79140;HTU21D;68546;59.142;37.948;2023-10-19T03:29:03;4.18;71.20
79140;HTU21D;68546;59.142;37.948;2023-10-19T03:31:34;4.17;71.04
79140;HTU21D;68546;59.142;37.948;2023-10-19T03:34:10;4.18;71.02
79140;HTU21D;68546;59.142;37.948;2023-10-19T03:36:39;4.19;71.10
79140;HTU21D;68546;59.142;37.948;2023-10-19T03:39:06;4.19;71.06
79140;HTU21D;68546;59.142;37.948;2023-10-19T03:41:42;4.22;71.17
79140;HTU21D;68546;59.142;37.948;2023-10-19T03:44:12;4.23;71.26
79140;HTU21D;68546;59.142;37.948;2023-10-19T03:47:02;4.28;71.29
79140;HTU21D;68546;59.142;37.948;2023-10-19T03:49:31;4.30;71.29
79140;HTU21D;68546;59.142;37.948;2023-10-19T03:52:02;4.33;71.26
79140;HTU21D;68546;59.142;37.948;2023-10-19T03:54:47;4.35;71.26
79140;HTU21D;68546;59.142;37.948;2023-10-19T03:57:15;4.38;71.29
79140;HTU21D;68546;59.142;37.948;2023-10-19T03:59:46;4.42;71.29
79140;HTU21D;68546;59.142;37.948;2023-10-19T04:02:15;4.45;71.26
79140;HTU21D;68546;59.142;37.948;2023-10-19T04:04:43;4.47;71.15
79140;HTU21D;68546;59.142;37.948;2023-10-19T04:07:10;4.50;71.04
79140;HTU21D;68546;59.142;37.948;2023-10-19T04:09:44;4.49;70.97
79140;HTU21D;68546;59.142;37.948;2023-10-19T04:12:29;4.52;70.71
79140;HTU21D;68546;59.142;37.948;2023-10-19T04:14:57;4.51;70.59
79140;HTU21D;68546;59.142;37.948;2023-10-19T04:17:23;4.52;70.53
79140;HTU21D;68546;59.142;37.948;2023-10-19T04:19:50;4.52;70.55
79140;HTU21D;68546;59.142;37.948;2023-10-19T04:22:21;4.52;70.46
79140;HTU21D;68546;59.142;37.948;2023-10-19T04:24:51;4.54;70.52
79140;HTU21D;68546;59.142;37.948;2023-10-19T04:27:18;4.53;70.48
79140;HTU21D;68546;59.142;37.948;2023-10-19T04:29:48;4.52;70.48
79140;HTU21D;68546;59.142;37.948;2023-10-19T04:32:16;4.53;70.61
79140;HTU21D;68546;59.142;37.948;2023-10-19T04:34:52;4.54;70.55
79140;HTU21D;68546;59.142;37.948;2023-10-19T04:37:19;4.57;70.61
79140;HTU21D;68546;59.142;37.948;2023-10-19T04:39:46;4.58;70.61
79140;HTU21D;68546;59.142;37.948;2023-10-19T04:42:12;4.59;70.61
79140;HTU21D;68546;59.142;37.948;2023-10-19T04:44:38;4.60;70.63
79140;HTU21D;68546;59.142;37.948;2023-10-19T04:47:05;4.63;70.67
79140;HTU21D;68546;59.142;37.948;2023-10-19T04:49:31;4.65;70.50
79140;HTU21D;68546;59.142;37.948;2023-10-19T04:51:58;4.66;70.27
79140;HTU21D;68546;59.142;37.948;2023-10-19T04:54:24;4.66;70.19
79140;HTU21D;68546;59.142;37.948;2023-10-19T04:56:51;4.68;70.20
79140;HTU21D;68546;59.142;37.948;2023-10-19T04:59:19;4.68;70.19
79140;HTU21D;68546;59.142;37.948;2023-10-19T05:01:45;4.69;70.24
79140;HTU21D;68546;59.142;37.948;2023-10-19T05:04:12;4.71;70.16
79140;HTU21D;68546;59.142;37.948;2023-10-19T05:06:39;4.73;70.17
79140;HTU21D;68546;59.142;37.948;2023-10-19T05:09:05;4.75;69.96
79140;HTU21D;68546;59.142;37.948;2023-10-19T05:11:32;4.77;69.76
79140;HTU21D;68546;59.142;37.948;2023-10-19T05:13:58;4.78;69.81
79140;HTU21D;68546;59.142;37.948;2023-10-19T05:16:25;4.80;69.78
79140;HTU21D;68546;59.142;37.948;2023-10-19T05:18:52;4.82;69.70
79140;HTU21D;68546;59.142;37.948;2023-10-19T05:21:19;4.83;69.74
79140;HTU21D;68546;59.142;37.948;2023-10-19T05:23:45;4.87;69.59
79140;HTU21D;68546;59.142;37.948;2023-10-19T05:26:11;4.90;69.54
79140;HTU21D;68546;59.142;37.948;2023-10-19T05:28:40;4.91;69.45
79140;HTU21D;68546;59.142;37.948;2023-10-19T05:31:08;4.93;69.31
79140;HTU21D;68546;59.142;37.948;2023-10-19T05:33:38;4.95;69.33
79140;HTU21D;68546;59.142;37.948;2023-10-19T05:36:04;4.97;69.26
79140;HTU21D;68546;59.142;37.948;2023-10-19T05:38:31;5.00;69.12
79140;HTU21D;68546;59.142;37.948;2023-10-19T05:40:58;5.02;68.92
79140;HTU21D;68546;59.142;37.948;2023-10-19T05:43:27;5.03;68.85
79140;HTU21D;68546;59.142;37.948;2023-10-19T05:45:54;5.07;68.67
79140;HTU21D;68546;59.142;37.948;2023-10-19T05:48:21;5.11;68.56
79140;HTU21D;68546;59.142;37.948;2023-10-19T05:50:49;5.12;68.42
79140;HTU21D;68546;59.142;37.948;2023-10-19T05:53:15;5.15;68.26
79140;HTU21D;68546;59.142;37.948;2023-10-19T05:55:44;5.18;67.92
79140;HTU21D;68546;59.142;37.948;2023-10-19T05:58:11;5.19;67.79
79140;HTU21D;68546;59.142;37.948;2023-10-19T06:00:38;5.19;67.75
79140;HTU21D;68546;59.142;37.948;2023-10-19T06:03:04;5.19;67.72
79140;HTU21D;68546;59.142;37.948;2023-10-19T06:05:31;5.20;67.72
79140;HTU21D;68546;59.142;37.948;2023-10-19T06:07:57;5.20;67.77
79140;HTU21D;68546;59.142;37.948;2023-10-19T06:10:28;5.22;67.73
79140;HTU21D;68546;59.142;37.948;2023-10-19T06:12:55;5.24;67.74
79140;HTU21D;68546;59.142;37.948;2023-10-19T06:15:22;5.24;67.68
79140;HTU21D;68546;59.142;37.948;2023-10-19T06:17:51;5.26;67.59
79140;HTU21D;68546;59.142;37.948;2023-10-19T06:20:18;5.28;67.47
79140;HTU21D;68546;59.142;37.948;2023-10-19T06:22:58;5.28;67.25
79140;HTU21D;68546;59.142;37.948;2023-10-19T06:25:34;5.28;67.10
79140;HTU21D;68546;59.142;37.948;2023-10-19T06:28:01;5.26;67.00
79140;HTU21D;68546;59.142;37.948;2023-10-19T06:30:28;5.26;66.85
79140;HTU21D;68546;59.142;37.948;2023-10-19T06:32:56;5.26;66.94
79140;HTU21D;68546;59.142;37.948;2023-10-19T06:35:23;5.28;67.17
79140;HTU21D;68546;59.142;37.948;2023-10-19T06:37:49;5.31;67.18
79140;HTU21D;68546;59.142;37.948;2023-10-19T06:40:16;5.33;67.27
79140;HTU21D;68546;59.142;37.948;2023-10-19T06:42:44;5.39;67.45
79140;HTU21D;68546;59.142;37.948;2023-10-19T06:45:12;5.43;67.62
79140;HTU21D;68546;59.142;37.948;2023-10-19T06:47:46;5.51;67.90
79140;HTU21D;68546;59.142;37.948;2023-10-19T06:50:14;5.60;68.07
79140;HTU21D;68546;59.142;37.948;2023-10-19T06:52:43;5.69;68.17
79140;HTU21D;68546;59.142;37.948;2023-10-19T06:55:10;5.79;68.18
79140;HTU21D;68546;59.142;37.948;2023-10-19T06:57:41;5.85;68.00
79140;HTU21D;68546;59.142;37.948;2023-10-19T07:00:13;5.93;67.91
79140;HTU21D;68546;59.142;37.948;2023-10-19T07:02:41;5.97;67.70
79140;HTU21D;68546;59.142;37.948;2023-10-19T07:05:09;6.04;67.59
79140;HTU21D;68546;59.142;37.948;2023-10-19T07:07:46;6.09;67.36
79140;HTU21D;68546;59.142;37.948;2023-10-19T07:10:13;6.10;67.04
79140;HTU21D;68546;59.142;37.948;2023-10-19T07:12:42;6.12;66.85
79140;HTU21D;68546;59.142;37.948;2023-10-19T07:15:09;6.15;66.67
79140;HTU21D;68546;59.142;37.948;2023-10-19T07:17:43;6.15;66.24
79140;HTU21D;68546;59.142;37.948;2023-10-19T07:20:11;6.14;65.63
79140;HTU21D;68546;59.142;37.948;2023-10-19T07:22:57;6.12;65.66
79140;HTU21D;68546;59.142;37.948;2023-10-19T07:25:28;6.11;65.84
79140;HTU21D;68546;59.142;37.948;2023-10-19T07:27:55;6.12;65.88
79140;HTU21D;68546;59.142;37.948;2023-10-19T07:30:22;6.13;65.83
79140;HTU21D;68546;59.142;37.948;2023-10-19T07:32:52;6.16;65.82
79140;HTU21D;68546;59.142;37.948;2023-10-19T07:35:28;6.21;65.75
79140;HTU21D;68546;59.142;37.948;2023-10-19T07:37:56;6.25;65.84
79140;HTU21D;68546;59.142;37.948;2023-10-19T07:40:23;6.29;65.80
79140;HTU21D;68546;59.142;37.948;2023-10-19T07:42:51;6.36;65.86
79140;HTU21D;68546;59.142;37.948;2023-10-19T07:45:20;6.43;65.82
79140;HTU21D;68546;59.142;37.948;2023-10-19T07:47:47;6.52;65.86
79140;HTU21D;68546;59.142;37.948;2023-10-19T07:50:14;6.60;65.78
79140;HTU21D;68546;59.142;37.948;2023-10-19T07:52:48;6.69;64.76
79140;HTU21D;68546;59.142;37.948;2023-10-19T07:55:15;6.75;64.88
79140;HTU21D;68546;59.142;37.948;2023-10-19T07:57:42;6.82;64.90
79140;HTU21D;68546;59.142;37.948;2023-10-19T08:00:10;6.88;65.14
79140;HTU21D;68546;59.142;37.948;2023-10-19T08:02:40;6.99;65.19
79140;HTU21D;68546;59.142;37.948;2023-10-19T08:05:12;7.08;65.07
79140;HTU21D;68546;59.142;37.948;2023-10-19T08:07:39;7.16;64.82
79140;HTU21D;68546;59.142;37.948;2023-10-19T08:10:10;7.23;64.24
79140;HTU21D;68546;59.142;37.948;2023-10-19T08:12:40;7.26;63.71
79140;HTU21D;68546;59.142;37.948;2023-10-19T08:15:08;7.29;63.54
79140;HTU21D;68546;59.142;37.948;2023-10-19T08:17:38;7.30;63.06
79140;HTU21D;68546;59.142;37.948;2023-10-19T08:20:10;7.31;62.76
79140;HTU21D;68546;59.142;37.948;2023-10-19T08:22:45;7.32;62.40
79140;HTU21D;68546;59.142;37.948;2023-10-19T08:25:13;7.31;62.16
79140;HTU21D;68546;59.142;37.948;2023-10-19T08:27:41;7.32;61.60
79140;HTU21D;68546;59.142;37.948;2023-10-19T08:30:14;7.31;61.35
79140;HTU21D;68546;59.142;37.948;2023-10-19T08:32:41;7.33;61.48
79140;HTU21D;68546;59.142;37.948;2023-10-19T08:35:10;7.34;61.12
79140;HTU21D;68546;59.142;37.948;2023-10-19T08:37:41;7.38;61.21
79140;HTU21D;68546;59.142;37.948;2023-10-19T08:40:10;7.42;61.36
79140;HTU21D;68546;59.142;37.948;2023-10-19T08:42:45;7.47;61.41
79140;HTU21D;68546;59.142;37.948;2023-10-19T08:45:17;7.55;61.25
79140;HTU21D;68546;59.142;37.948;2023-10-19T08:47:58;7.61;61.10
79140;HTU21D;68546;59.142;37.948;2023-10-19T08:50:31;7.65;60.83
79140;HTU21D;68546;59.142;37.948;2023-10-19T08:52:59;7.69;60.29
79140;HTU21D;68546;59.142;37.948;2023-10-19T08:55:26;7.70;60.20
79140;HTU21D;68546;59.142;37.948;2023-10-19T08:57:53;7.70;59.99
79140;HTU21D;68546;59.142;37.948;2023-10-19T09:00:20;7.64;59.99
79140;HTU21D;68546;59.142;37.948;2023-10-19T09:02:54;7.59;59.80
79140;HTU21D;68546;59.142;37.948;2023-10-19T09:05:23;7.53;59.67
79140;HTU21D;68546;59.142;37.948;2023-10-19T09:07:52;7.44;59.53
79140;HTU21D;68546;59.142;37.948;2023-10-19T09:10:26;7.34;59.38
79140;HTU21D;68546;59.142;37.948;2023-10-19T09:13:04;7.25;59.51
79140;HTU21D;68546;59.142;37.948;2023-10-19T09:15:31;7.15;59.55
79140;HTU21D;68546;59.142;37.948;2023-10-19T09:18:34;7.04;59.73
79140;HTU21D;68546;59.142;37.948;2023-10-19T09:21:00;6.99;59.73
79140;HTU21D;68546;59.142;37.948;2023-10-19T09:23:34;6.93;59.83
79140;HTU21D;68546;59.142;37.948;2023-10-19T09:26:02;6.86;59.87
79140;HTU21D;68546;59.142;37.948;2023-10-19T09:28:37;6.82;59.93
79140;HTU21D;68546;59.142;37.948;2023-10-19T09:31:04;6.80;60.15
79140;HTU21D;68546;59.142;37.948;2023-10-19T09:33:32;6.78;60.38
79140;HTU21D;68546;59.142;37.948;2023-10-19T09:36:01;6.79;60.58
79140;HTU21D;68546;59.142;37.948;2023-10-19T09:38:27;6.81;60.58
79140;HTU21D;68546;59.142;37.948;2023-10-19T09:40:55;6.82;60.64
79140;HTU21D;68546;59.142;37.948;2023-10-19T09:43:38;6.85;60.64
79140;HTU21D;68546;59.142;37.948;2023-10-19T09:46:09;6.88;60.64
79140;HTU21D;68546;59.142;37.948;2023-10-19T09:48:41;6.94;60.93
79140;HTU21D;68546;59.142;37.948;2023-10-19T09:51:08;7.01;61.31
79140;HTU21D;68546;59.142;37.948;2023-10-19T09:53:36;7.13;61.38
79140;HTU21D;68546;59.142;37.948;2023-10-19T09:56:06;7.23;61.02
79140;HTU21D;68546;59.142;37.948;2023-10-19T09:58:55;7.33;60.74
79140;HTU21D;68546;59.142;37.948;2023-10-19T10:01:24;7.40;60.78
79140;HTU21D;68546;59.142;37.948;2023-10-19T10:03:52;7.48;60.79
79140;HTU21D;68546;59.142;37.948;2023-10-19T10:06:30;7.55;60.40
79140;HTU21D;68546;59.142;37.948;2023-10-19T10:08:59;7.58;59.97
79140;HTU21D;68546;59.142;37.948;2023-10-19T10:11:27;7.58;59.48
79140;HTU21D;68546;59.142;37.948;2023-10-19T10:13:55;7.60;59.54
79140;HTU21D;68546;59.142;37.948;2023-10-19T10:16:24;7.62;59.57
79140;HTU21D;68546;59.142;37.948;2023-10-19T10:18:57;7.62;58.96
79140;HTU21D;68546;59.142;37.948;2023-10-19T10:21:30;7.61;59.09
79140;HTU21D;68546;59.142;37.948;2023-10-19T10:23:59;7.62;59.40
79140;HTU21D;68546;59.142;37.948;2023-10-19T10:26:30;7.68;59.35
79140;HTU21D;68546;59.142;37.948;2023-10-19T10:31:41;7.74;59.30
79140;HTU21D;68546;59.142;37.948;2023-10-19T10:34:11;7.76;59.19
79140;HTU21D;68546;59.142;37.948;2023-10-19T10:37:01;7.79;59.00
79140;HTU21D;68546;59.142;37.948;2023-10-19T10:39:29;7.79;58.76
79140;HTU21D;68546;59.142;37.948;2023-10-19T10:42:02;7.78;58.54
79140;HTU21D;68546;59.142;37.948;2023-10-19T10:44:46;7.78;58.49
79140;HTU21D;68546;59.142;37.948;2023-10-19T10:47:17;7.77;58.16
79140;HTU21D;68546;59.142;37.948;2023-10-19T10:49:54;7.75;58.38
79140;HTU21D;68546;59.142;37.948;2023-10-19T10:52:25;7.76;58.69
79140;HTU21D;68546;59.142;37.948;2023-10-19T10:54:52;7.82;58.83
79140;HTU21D;68546;59.142;37.948;2023-10-19T10:57:19;7.86;58.77
79140;HTU21D;68546;59.142;37.948;2023-10-19T11:00:03;7.92;58.79
79140;HTU21D;68546;59.142;37.948;2023-10-19T11:02:31;7.96;58.67
79140;HTU21D;68546;59.142;37.948;2023-10-19T11:04:58;7.98;58.03
79140;HTU21D;68546;59.142;37.948;2023-10-19T11:07:26;7.98;58.09
79140;HTU21D;68546;59.142;37.948;2023-10-19T11:09:52;7.96;58.03
79140;HTU21D;68546;59.142;37.948;2023-10-19T11:12:19;7.93;57.99
79140;HTU21D;68546;59.142;37.948;2023-10-19T11:14:59;7.89;58.02
79140;HTU21D;68546;59.142;37.948;2023-10-19T11:17:29;7.84;58.14
79140;HTU21D;68546;59.142;37.948;2023-10-19T11:19:59;7.77;58.34
79140;HTU21D;68546;59.142;37.948;2023-10-19T11:22:26;7.70;58.32
79140;HTU21D;68546;59.142;37.948;2023-10-19T11:25:19;7.62;58.32
79140;HTU21D;68546;59.142;37.948;2023-10-19T11:27:46;7.54;58.28
79140;HTU21D;68546;59.142;37.948;2023-10-19T11:30:34;7.44;58.41
79140;HTU21D;68546;59.142;37.948;2023-10-19T11:33:01;7.37;58.46
79140;HTU21D;68546;59.142;37.948;2023-10-19T11:35:30;7.28;58.61
79140;HTU21D;68546;59.142;37.948;2023-10-19T11:38:00;7.20;58.83
79140;HTU21D;68546;59.142;37.948;2023-10-19T11:40:28;7.16;59.00
79140;HTU21D;68546;59.142;37.948;2023-10-19T11:42:55;7.13;59.22
79140;HTU21D;68546;59.142;37.948;2023-10-19T11:45:26;7.11;59.42
79140;HTU21D;68546;59.142;37.948;2023-10-19T11:47:53;7.10;59.83
79140;HTU21D;68546;59.142;37.948;2023-10-19T11:50:20;7.12;60.14
79140;HTU21D;68546;59.142;37.948;2023-10-19T11:52:47;7.14;60.14
79140;HTU21D;68546;59.142;37.948;2023-10-19T11:55:14;7.16;60.19
79140;HTU21D;68546;59.142;37.948;2023-10-19T11:57:44;7.19;60.28
79140;HTU21D;68546;59.142;37.948;2023-10-19T12:00:11;7.20;60.35
79140;HTU21D;68546;59.142;37.948;2023-10-19T12:02:48;7.25;60.46
79140;HTU21D;68546;59.142;37.948;2023-10-19T12:05:14;7.26;60.47
79140;HTU21D;68546;59.142;37.948;2023-10-19T12:07:41;7.26;60.31
79140;HTU21D;68546;59.142;37.948;2023-10-19T12:10:09;7.24;60.25
79140;HTU21D;68546;59.142;37.948;2023-10-19T12:12:36;7.20;60.20
79140;HTU21D;68546;59.142;37.948;2023-10-19T12:15:04;7.17;60.15
79140;HTU21D;68546;59.142;37.948;2023-10-19T12:17:32;7.14;60.01
79140;HTU21D;68546;59.142;37.948;2023-10-19T12:19:58;7.10;59.93
79140;HTU21D;68546;59.142;37.948;2023-10-19T12:22:25;7.04;59.84
79140;HTU21D;68546;59.142;37.948;2023-10-19T12:24:57;6.99;59.93
79140;HTU21D;68546;59.142;37.948;2023-10-19T12:27:25;6.95;60.10
79140;HTU21D;68546;59.142;37.948;2023-10-19T12:29:52;6.91;60.19
79140;HTU21D;68546;59.142;37.948;2023-10-19T12:32:22;6.90;60.34
79140;HTU21D;68546;59.142;37.948;2023-10-19T12:34:50;6.89;60.48
79140;HTU21D;68546;59.142;37.948;2023-10-19T12:37:22;6.90;60.71
79140;HTU21D;68546;59.142;37.948;2023-10-19T12:39:48;6.93;60.98
79140;HTU21D;68546;59.142;37.948;2023-10-19T12:42:16;6.97;61.15
79140;HTU21D;68546;59.142;37.948;2023-10-19T12:44:50;7.00;61.21
79140;HTU21D;68546;59.142;37.948;2023-10-19T12:47:17;7.02;61.36
79140;HTU21D;68546;59.142;37.948;2023-10-19T12:49:43;7.07;61.38
79140;HTU21D;68546;59.142;37.948;2023-10-19T12:52:12;7.09;61.43
79140;HTU21D;68546;59.142;37.948;2023-10-19T12:54:38;7.11;61.42
79140;HTU21D;68546;59.142;37.948;2023-10-19T12:57:05;7.11;61.29
79140;HTU21D;68546;59.142;37.948;2023-10-19T12:59:35;7.11;61.22
79140;HTU21D;68546;59.142;37.948;2023-10-19T13:02:08;7.10;61.21
79140;HTU21D;68546;59.142;37.948;2023-10-19T13:04:41;7.08;61.12
79140;HTU21D;68546;59.142;37.948;2023-10-19T13:07:08;7.05;60.97
79140;HTU21D;68546;59.142;37.948;2023-10-19T13:09:36;7.02;60.90
79140;HTU21D;68546;59.142;37.948;2023-10-19T13:12:03;6.99;60.90
79140;HTU21D;68546;59.142;37.948;2023-10-19T13:14:33;6.98;61.10
79140;HTU21D;68546;59.142;37.948;2023-10-19T13:17:00;6.95;60.93
79140;HTU21D;68546;59.142;37.948;2023-10-19T13:19:27;6.91;60.80
79140;HTU21D;68546;59.142;37.948;2023-10-19T13:21:53;6.86;60.72
79140;HTU21D;68546;59.142;37.948;2023-10-19T13:24:20;6.79;60.73
79140;HTU21D;68546;59.142;37.948;2023-10-19T13:26:48;6.74;60.80
79140;HTU21D;68546;59.142;37.948;2023-10-19T13:29:14;6.70;60.93
79140;HTU21D;68546;59.142;37.948;2023-10-19T13:31:44;6.68;61.05
79140;HTU21D;68546;59.142;37.948;2023-10-19T13:34:18;6.64;61.15
79140;HTU21D;68546;59.142;37.948;2023-10-19T13:36:44;6.61;61.23
79140;HTU21D;68546;59.142;37.948;2023-10-19T13:39:12;6.59;61.39
79140;HTU21D;68546;59.142;37.948;2023-10-19T13:41:43;6.58;61.50
79140;HTU21D;68546;59.142;37.948;2023-10-19T13:44:10;6.57;61.60
79140;HTU21D;68546;59.142;37.948;2023-10-19T13:46:38;6.54;61.68
79140;HTU21D;68546;59.142;37.948;2023-10-19T13:49:04;6.53;61.76
79140;HTU21D;68546;59.142;37.948;2023-10-19T13:51:31;6.52;61.80
79140;HTU21D;68546;59.142;37.948;2023-10-19T13:53:59;6.51;61.83
79140;HTU21D;68546;59.142;37.948;2023-10-19T13:56:25;6.51;61.94
79140;HTU21D;68546;59.142;37.948;2023-10-19T13:58:52;6.49;61.96
79140;HTU21D;68546;59.142;37.948;2023-10-19T14:01:18;6.45;61.93
79140;HTU21D;68546;59.142;37.948;2023-10-19T14:03:47;6.41;62.05
79140;HTU21D;68546;59.142;37.948;2023-10-19T14:06:14;6.37;62.21
79140;HTU21D;68546;59.142;37.948;2023-10-19T14:08:41;6.35;62.51
79140;HTU21D;68546;59.142;37.948;2023-10-19T14:11:07;6.30;62.60
79140;HTU21D;68546;59.142;37.948;2023-10-19T14:13:35;6.26;62.64
79140;HTU21D;68546;59.142;37.948;2023-10-19T14:16:09;6.23;62.76
79140;HTU21D;68546;59.142;37.948;2023-10-19T14:18:36;6.17;62.92
79140;HTU21D;68546;59.142;37.948;2023-10-19T14:21:16;6.13;63.05
79140;HTU21D;68546;59.142;37.948;2023-10-19T14:23:44;6.08;63.15
79140;HTU21D;68546;59.142;37.948;2023-10-19T14:26:11;6.00;63.15
79140;HTU21D;68546;59.142;37.948;2023-10-19T14:28:38;5.94;63.09
79140;HTU21D;68546;59.142;37.948;2023-10-19T14:31:04;5.87;63.17
79140;HTU21D;68546;59.142;37.948;2023-10-19T14:33:31;5.80;63.25
79140;HTU21D;68546;59.142;37.948;2023-10-19T14:35:59;5.74;63.35
79140;HTU21D;68546;59.142;37.948;2023-10-19T14:38:26;5.67;63.49
79140;HTU21D;68546;59.142;37.948;2023-10-19T14:40:53;5.61;63.52
79140;HTU21D;68546;59.142;37.948;2023-10-19T14:43:20;5.54;63.84
79140;HTU21D;68546;59.142;37.948;2023-10-19T14:45:47;5.49;64.15
79140;HTU21D;68546;59.142;37.948;2023-10-19T14:48:13;5.42;64.21
79140;HTU21D;68546;59.142;37.948;2023-10-19T14:50:42;5.36;64.66
79140;HTU21D;68546;59.142;37.948;2023-10-19T14:53:09;5.31;64.76
79140;HTU21D;68546;59.142;37.948;2023-10-19T14:55:35;5.25;64.85
79140;HTU21D;68546;59.142;37.948;2023-10-19T14:58:02;5.20;65.45
79140;HTU21D;68546;59.142;37.948;2023-10-19T15:00:28;5.15;65.37
79140;HTU21D;68546;59.142;37.948;2023-10-19T15:02:56;5.11;65.57
79140;HTU21D;68546;59.142;37.948;2023-10-19T15:05:23;5.07;66.14
79140;HTU21D;68546;59.142;37.948;2023-10-19T15:07:53;5.02;66.37
79140;HTU21D;68546;59.142;37.948;2023-10-19T15:10:26;4.97;66.52
79140;HTU21D;68546;59.142;37.948;2023-10-19T15:12:53;4.94;66.53
79140;HTU21D;68546;59.142;37.948;2023-10-19T15:15:20;4.91;66.85
79140;HTU21D;68546;59.142;37.948;2023-10-19T15:17:47;4.87;66.78
79140;HTU21D;68546;59.142;37.948;2023-10-19T15:20:14;4.83;66.92
79140;HTU21D;68546;59.142;37.948;2023-10-19T15:22:44;4.80;67.02
79140;HTU21D;68546;59.142;37.948;2023-10-19T15:25:12;4.77;67.03
79140;HTU21D;68546;59.142;37.948;2023-10-19T15:27:40;4.76;67.37
79140;HTU21D;68546;59.142;37.948;2023-10-19T15:30:08;4.75;67.67
79140;HTU21D;68546;59.142;37.948;2023-10-19T15:32:38;4.72;67.86
79140;HTU21D;68546;59.142;37.948;2023-10-19T15:35:09;4.71;67.89
79140;HTU21D;68546;59.142;37.948;2023-10-19T15:37:38;4.68;67.90